createdAt,value
2022-10-18T00:00:30.491Z,0.10
2022-10-18T00:01:31.915Z,0.10
2022-10-18T00:03:35.567Z,0.30
2022-10-18T00:04:37.148Z,0.88
2022-10-18T00:05:38.595Z,0.10
2022-10-18T00:06:43.373Z,0.47
2022-10-18T00:07:45.128Z,0.10
2022-10-18T00:08:46.590Z,0.25
2022-10-18T00:09:48.003Z,0.10
2022-10-18T00:11:51.080Z,0.10
2022-10-18T00:12:52.726Z,0.20
2022-10-18T00:13:56.397Z,0.10
2022-10-18T00:14:57.803Z,0.13
2022-10-18T00:17:02.564Z,0.10
2022-10-18T00:18:04.164Z,0.20
2022-10-18T00:19:05.615Z,0.10
2022-10-18T00:20:07.703Z,0.35
2022-10-18T00:21:12.981Z,0.10
2022-10-18T00:22:14.407Z,0.10
2022-10-18T00:23:15.808Z,0.30
2022-10-18T00:25:18.720Z,0.10
2022-10-18T00:26:23.757Z,0.10
2022-10-18T00:27:25.238Z,0.10
2022-10-18T00:28:27.707Z,0.10
2022-10-18T00:29:29.176Z,0.15
2022-10-18T00:31:34.950Z,0.10
2022-10-18T00:32:41.530Z,0.10
2022-10-18T00:33:45.236Z,0.10
2022-10-18T00:34:46.735Z,0.10
2022-10-18T00:35:48.164Z,0.10
2022-10-18T00:37:50.887Z,0.10
2022-10-18T00:39:54.053Z,1.05
2022-10-18T00:41:56.820Z,0.43
2022-10-18T00:42:58.213Z,0.10
2022-10-18T00:45:21.406Z,2.05
2022-10-18T00:46:23.908Z,0.25
2022-10-18T00:47:26.230Z,0.20
2022-10-18T00:48:27.862Z,0.20
2022-10-18T00:49:36.426Z,0.22
2022-10-18T00:50:38.525Z,0.10
2022-10-18T00:51:44.776Z,0.98
2022-10-18T00:52:53.076Z,0.57
2022-10-18T00:53:54.565Z,0.25
2022-10-18T00:54:57.488Z,0.10
2022-10-18T00:55:59.076Z,2.92
2022-10-18T00:57:01.293Z,1.05
2022-10-18T00:58:03.911Z,0.10
2022-10-18T00:59:05.731Z,1.15
2022-10-18T01:00:08.531Z,0.10
2022-10-18T01:01:10.247Z,0.10
2022-10-18T01:02:12.338Z,0.32
2022-10-18T01:03:13.946Z,0.20
2022-10-18T01:04:17.420Z,0.10
2022-10-18T01:05:19.898Z,0.10
2022-10-18T01:06:21.627Z,0.10
2022-10-18T01:07:34.087Z,0.10
2022-10-18T01:08:53.240Z,0.10
2022-10-18T01:10:24.891Z,0.10
2022-10-18T01:11:44.491Z,0.10
2022-10-18T01:13:04.665Z,0.10
2022-10-18T01:14:24.540Z,0.10
2022-10-18T01:15:35.175Z,0.17
2022-10-18T01:16:48.001Z,0.10
2022-10-18T01:17:56.192Z,0.10
2022-10-18T01:19:35.690Z,0.10
2022-10-18T01:20:52.114Z,0.10
2022-10-18T01:22:00.192Z,0.20
2022-10-18T01:23:07.874Z,0.10
2022-10-18T01:24:17.559Z,0.20
2022-10-18T01:25:51.432Z,0.15
2022-10-18T01:27:10.964Z,0.10
2022-10-18T01:28:35.292Z,0.10
2022-10-18T01:29:58.556Z,0.10
2022-10-18T01:31:46.427Z,0.85
2022-10-18T01:32:54.347Z,0.10
2022-10-18T01:34:04.433Z,0.10
2022-10-18T01:35:12.478Z,0.10
2022-10-18T01:36:29.362Z,0.10
2022-10-18T01:37:32.861Z,0.10
2022-10-18T01:38:36.547Z,0.10
2022-10-18T01:39:41.733Z,0.10
2022-10-18T01:40:45.617Z,0.77
2022-10-18T01:41:50.517Z,0.25
2022-10-18T01:42:52.041Z,0.98
2022-10-18T01:43:59.357Z,0.30
2022-10-18T01:45:03.496Z,0.45
2022-10-18T01:46:05.310Z,0.10
2022-10-18T01:47:09.467Z,0.32
2022-10-18T01:48:12.807Z,0.30
2022-10-18T01:49:14.251Z,0.20
2022-10-18T01:50:15.934Z,1.17
2022-10-18T01:51:25.540Z,0.65
2022-10-18T01:52:27.021Z,1.08
2022-10-18T01:53:32.050Z,0.50
2022-10-18T01:54:37.438Z,0.20
2022-10-18T01:55:49.912Z,1.58
2022-10-18T01:56:57.120Z,0.77
2022-10-18T01:58:12.312Z,0.30
2022-10-18T01:59:28.279Z,0.43
2022-10-18T02:00:41.710Z,0.88
2022-10-18T02:01:51.939Z,0.10
2022-10-18T02:02:56.619Z,0.25
2022-10-18T02:04:07.044Z,0.80
2022-10-18T02:05:30.116Z,0.10
2022-10-18T02:06:38.232Z,0.10
2022-10-18T02:07:51.889Z,0.10
2022-10-18T02:10:18.324Z,0.63
2022-10-18T02:11:20.384Z,0.22
2022-10-18T02:12:23.325Z,0.10
2022-10-18T02:13:29.523Z,0.10
2022-10-18T02:14:32.864Z,0.10
2022-10-18T02:15:39.065Z,8.27
2022-10-18T02:16:52.104Z,0.10
2022-10-18T02:17:55.768Z,0.20
2022-10-18T02:19:14.425Z,0.10
2022-10-18T02:20:21.132Z,0.20
2022-10-18T02:21:24.608Z,0.40
2022-10-18T02:22:31.080Z,0.10
2022-10-18T02:23:34.607Z,0.20
2022-10-18T02:24:39.850Z,0.20
2022-10-18T02:25:41.344Z,0.10
2022-10-18T02:26:43.276Z,0.10
2022-10-18T02:27:44.744Z,0.28
2022-10-18T02:28:46.294Z,0.20
2022-10-18T02:29:48.547Z,0.20
2022-10-18T02:31:02.318Z,0.20
2022-10-18T02:32:15.737Z,0.20
2022-10-18T02:33:27.994Z,0.10
2022-10-18T02:34:34.345Z,0.15
2022-10-18T02:35:41.984Z,0.25
2022-10-18T02:36:47.681Z,0.10
2022-10-18T02:37:50.719Z,0.50
2022-10-18T02:39:03.663Z,1.05
2022-10-18T02:40:08.492Z,0.10
2022-10-18T02:41:09.951Z,0.20
2022-10-18T02:42:12.047Z,0.28
2022-10-18T02:43:13.988Z,0.10
2022-10-18T02:44:15.436Z,0.35
2022-10-18T02:45:17.253Z,0.22
2022-10-18T02:46:19.759Z,0.10
2022-10-18T02:47:21.205Z,0.20
2022-10-18T02:49:24.075Z,0.30
2022-10-18T02:50:25.549Z,0.10
2022-10-18T02:51:27.004Z,0.20
2022-10-18T02:52:28.437Z,0.20
2022-10-18T02:53:29.863Z,0.20
2022-10-18T02:55:32.631Z,0.20
2022-10-18T02:56:35.245Z,0.80
2022-10-18T02:57:37.471Z,0.20
2022-10-18T02:58:38.922Z,0.32
2022-10-18T02:59:40.355Z,0.13
2022-10-18T03:00:41.812Z,0.50
2022-10-18T03:02:44.764Z,0.10
2022-10-18T03:04:47.635Z,0.70
2022-10-18T03:06:50.904Z,0.20
2022-10-18T03:08:54.093Z,0.10
2022-10-18T03:09:55.538Z,0.10
2022-10-18T03:10:56.976Z,0.10
2022-10-18T03:12:59.728Z,0.10
2022-10-18T03:15:02.678Z,0.10
2022-10-18T03:16:04.271Z,0.10
2022-10-18T03:17:05.700Z,0.10
2022-10-18T03:19:08.483Z,0.10
2022-10-18T03:20:10.529Z,0.10
2022-10-18T03:21:12.099Z,0.10
2022-10-18T03:22:13.512Z,0.10
2022-10-18T03:24:16.341Z,0.10
2022-10-18T03:25:17.810Z,0.10
2022-10-18T03:26:19.234Z,0.10
2022-10-18T03:28:22.003Z,0.10
2022-10-18T03:29:23.431Z,0.10
2022-10-18T03:31:26.397Z,0.43
2022-10-18T03:32:27.868Z,0.30
2022-10-18T03:34:31.102Z,0.40
2022-10-18T03:35:32.514Z,0.10
2022-10-18T03:37:35.936Z,0.63
2022-10-18T03:38:37.675Z,0.10
2022-10-18T03:39:39.100Z,0.20
2022-10-18T03:40:40.562Z,0.10
2022-10-18T03:42:43.439Z,0.10
2022-10-18T03:43:44.857Z,0.20
2022-10-18T03:45:47.645Z,0.60
2022-10-18T03:46:49.054Z,0.17
2022-10-18T03:48:51.852Z,0.10
2022-10-18T03:49:56.290Z,0.73
2022-10-18T03:50:58.794Z,0.40
2022-10-18T03:53:01.558Z,0.10
2022-10-18T03:55:04.908Z,2.53
2022-10-18T03:56:06.636Z,0.20
2022-10-18T03:57:08.172Z,0.10
2022-10-18T03:58:09.840Z,0.50
2022-10-18T03:59:11.285Z,0.20
2022-10-18T04:01:15.546Z,0.10
2022-10-18T04:02:17.011Z,0.10
2022-10-18T04:04:20.374Z,0.10
2022-10-18T04:06:23.386Z,0.10
2022-10-18T04:08:26.496Z,0.10
2022-10-18T04:09:27.930Z,0.20
2022-10-18T04:11:30.866Z,0.10
2022-10-18T04:12:32.608Z,0.10
2022-10-18T04:13:34.929Z,0.13
2022-10-18T04:14:36.411Z,0.10
2022-10-18T04:15:37.870Z,0.38
2022-10-18T04:16:39.290Z,0.30
2022-10-18T04:18:42.308Z,0.55
2022-10-18T04:19:43.738Z,0.10
2022-10-18T04:20:45.158Z,0.10
2022-10-18T04:22:48.448Z,0.40
2022-10-18T04:23:50.898Z,0.20
2022-10-18T04:24:52.365Z,0.10
2022-10-18T04:26:55.124Z,0.10
2022-10-18T04:28:58.017Z,0.10
2022-10-18T04:29:59.491Z,0.20
2022-10-18T04:32:02.330Z,0.20
2022-10-18T04:33:03.810Z,0.50
2022-10-18T04:34:05.279Z,0.10
2022-10-18T04:35:07.375Z,1.88
2022-10-18T04:36:08.809Z,0.50
2022-10-18T04:37:10.221Z,0.20
2022-10-18T04:39:13.046Z,0.30
2022-10-18T04:41:15.832Z,0.10
2022-10-18T04:43:18.679Z,0.10
2022-10-18T04:44:20.111Z,0.82
2022-10-18T04:45:21.531Z,0.10
2022-10-18T04:47:24.296Z,0.20
2022-10-18T04:48:25.759Z,0.30
2022-10-18T04:49:27.198Z,0.25
2022-10-18T04:50:28.817Z,0.52
2022-10-18T04:51:31.693Z,0.20
2022-10-18T04:52:33.153Z,0.10
2022-10-18T04:54:35.936Z,0.10
2022-10-18T04:56:38.733Z,0.10
2022-10-18T04:58:41.506Z,0.52
2022-10-18T05:00:44.377Z,0.10
2022-10-18T05:01:45.882Z,3.92
2022-10-18T05:02:47.443Z,0.10
2022-10-18T05:03:52.537Z,0.10
2022-10-18T05:04:53.961Z,0.20
2022-10-18T05:07:04.781Z,0.10
2022-10-18T05:08:07.047Z,0.35
2022-10-18T05:09:08.472Z,0.20
2022-10-18T05:11:11.362Z,0.10
2022-10-18T05:12:12.817Z,0.10
2022-10-18T05:14:15.672Z,0.10
2022-10-18T05:15:17.206Z,0.10
2022-10-18T05:16:18.691Z,0.10
2022-10-18T05:17:20.134Z,0.10
2022-10-18T05:19:22.936Z,0.10
2022-10-18T05:20:24.366Z,0.10
2022-10-18T05:22:27.182Z,0.10
2022-10-18T05:24:29.922Z,0.10
2022-10-18T05:26:32.886Z,0.63
2022-10-18T05:27:34.478Z,0.30
2022-10-18T05:28:40.427Z,0.10
2022-10-18T05:29:42.321Z,0.15
2022-10-18T05:31:45.116Z,0.13
2022-10-18T05:33:47.965Z,0.10
2022-10-18T05:34:49.413Z,0.43
2022-10-18T05:35:50.853Z,0.82
2022-10-18T05:37:53.603Z,0.20
2022-10-18T05:39:56.378Z,0.10
2022-10-18T05:43:01.111Z,0.20
2022-10-18T05:45:05.520Z,0.60
2022-10-18T05:46:11.827Z,0.10
2022-10-18T05:47:16.406Z,0.10
2022-10-18T05:48:18.499Z,0.10
2022-10-18T05:49:20.008Z,0.10
2022-10-18T05:50:21.619Z,0.10
2022-10-18T05:51:23.070Z,1.08
2022-10-18T05:52:24.509Z,0.30
2022-10-18T05:53:41.920Z,0.10
2022-10-18T05:54:43.370Z,0.10
2022-10-18T05:55:44.899Z,0.65
2022-10-18T05:56:46.462Z,0.10
2022-10-18T05:57:51.386Z,0.10
2022-10-18T05:58:52.838Z,0.10
2022-10-18T05:59:54.252Z,0.00
2022-10-18T06:00:58.803Z,0.03
2022-10-18T06:02:00.292Z,0.50
2022-10-18T06:03:01.716Z,0.05
2022-10-18T06:04:03.211Z,1.05
2022-10-18T06:05:04.899Z,0.65
2022-10-18T06:06:11.553Z,0.30
2022-10-18T06:07:12.999Z,0.47
2022-10-18T06:08:14.409Z,0.10
2022-10-18T06:09:15.890Z,0.05
2022-10-18T06:10:17.367Z,0.13
2022-10-18T06:11:20.229Z,0.10
2022-10-18T06:12:21.655Z,0.00
2022-10-18T06:13:23.451Z,0.60
2022-10-18T06:14:24.879Z,0.10
2022-10-18T06:15:26.313Z,0.00
2022-10-18T06:16:32.272Z,0.10
2022-10-18T06:17:34.314Z,0.10
2022-10-18T06:18:36.378Z,0.13
2022-10-18T06:19:37.809Z,0.10
2022-10-18T06:20:39.288Z,0.00
2022-10-18T06:21:40.679Z,0.00
2022-10-18T06:22:42.116Z,0.00
2022-10-18T06:23:43.732Z,0.00
2022-10-18T06:24:45.145Z,0.00
2022-10-18T06:25:46.571Z,0.00
2022-10-18T06:26:48.522Z,0.00
2022-10-18T06:27:50.034Z,0.15
2022-10-18T06:28:51.771Z,0.13
2022-10-18T06:29:53.222Z,0.13
2022-10-18T06:30:54.772Z,0.25
2022-10-18T06:31:56.168Z,0.60
2022-10-18T06:33:01.133Z,0.20
2022-10-18T06:34:02.565Z,0.38
2022-10-18T06:35:04.280Z,1.33
2022-10-18T06:36:08.119Z,0.32
2022-10-18T06:37:09.536Z,0.40
2022-10-18T06:38:10.949Z,1.25
2022-10-18T06:39:12.410Z,0.40
2022-10-18T06:40:13.852Z,0.20
2022-10-18T06:41:15.316Z,0.10
2022-10-18T06:42:19.087Z,0.28
2022-10-18T06:43:23.873Z,0.10
2022-10-18T06:44:25.359Z,0.95
2022-10-18T06:45:26.775Z,0.00
2022-10-18T06:46:28.264Z,0.00
2022-10-18T06:47:29.695Z,0.00
2022-10-18T06:48:31.734Z,0.10
2022-10-18T06:49:33.180Z,0.00
2022-10-18T06:50:34.610Z,0.20
2022-10-18T06:51:36.535Z,1.10
2022-10-18T06:52:38.015Z,0.35
2022-10-18T06:53:43.902Z,0.60
2022-10-18T06:54:50.100Z,0.55
2022-10-18T06:55:51.612Z,0.60
2022-10-18T06:56:56.248Z,0.10
2022-10-18T06:57:57.678Z,0.10
2022-10-18T07:00:05.793Z,0.13
2022-10-18T07:01:13.337Z,0.10
2022-10-18T07:02:16.152Z,0.08
2022-10-18T07:03:17.576Z,0.00
2022-10-18T07:04:18.985Z,0.10
2022-10-18T07:05:20.465Z,0.00
2022-10-18T07:06:23.325Z,10.43
2022-10-18T07:07:24.739Z,0.00
2022-10-18T07:08:26.155Z,0.75
2022-10-18T07:09:27.662Z,0.10
2022-10-18T07:10:29.085Z,0.00
2022-10-18T07:11:30.578Z,0.00
2022-10-18T07:12:32.901Z,0.00
2022-10-18T07:13:34.757Z,0.00
2022-10-18T07:14:36.172Z,0.05
2022-10-18T07:15:37.612Z,0.50
2022-10-18T07:16:39.041Z,0.00
2022-10-18T07:17:40.549Z,0.00
2022-10-18T07:18:45.586Z,0.10
2022-10-18T07:19:47.029Z,0.00
2022-10-18T07:20:48.443Z,0.55
2022-10-18T07:21:49.844Z,0.00
2022-10-18T07:22:55.967Z,0.00
2022-10-18T07:23:57.536Z,0.00
2022-10-18T07:24:58.948Z,0.00
2022-10-18T07:26:00.994Z,0.00
2022-10-18T07:27:02.582Z,0.30
2022-10-18T07:28:04.093Z,0.00
2022-10-18T07:29:09.285Z,0.00
2022-10-18T07:30:11.382Z,0.00
2022-10-18T07:31:13.352Z,0.00
2022-10-18T07:32:14.789Z,1.10
2022-10-18T07:33:16.202Z,0.20
2022-10-18T07:34:17.630Z,0.00
2022-10-18T07:35:19.093Z,0.00
2022-10-18T07:36:21.019Z,0.45
2022-10-18T07:37:25.470Z,0.08
2022-10-18T07:38:29.704Z,0.10
2022-10-18T07:39:31.115Z,0.00
2022-10-18T07:40:32.580Z,0.00
2022-10-18T07:41:34.062Z,0.10
2022-10-18T07:42:35.787Z,0.00
2022-10-18T07:43:37.192Z,0.00
2022-10-18T07:44:39.395Z,0.13
2022-10-18T07:45:40.813Z,0.20
2022-10-18T07:46:42.241Z,0.85
2022-10-18T07:47:43.652Z,0.35
2022-10-18T07:48:45.101Z,0.40
2022-10-18T07:49:46.507Z,0.05
2022-10-18T07:50:48.049Z,0.40
2022-10-18T07:51:49.482Z,0.10
2022-10-18T07:52:50.892Z,0.88
2022-10-18T07:53:52.295Z,0.10
2022-10-18T07:54:53.718Z,0.50
2022-10-18T07:55:59.470Z,0.30
2022-10-18T07:57:00.895Z,1.05
2022-10-18T07:58:02.323Z,1.55
2022-10-18T07:59:03.796Z,0.52
2022-10-18T08:00:05.795Z,0.20
2022-10-18T08:01:14.420Z,0.10
2022-10-18T08:02:15.912Z,0.00
2022-10-18T08:03:17.328Z,2.75
2022-10-18T08:04:18.792Z,0.40
2022-10-18T08:05:20.244Z,0.05
2022-10-18T08:06:23.042Z,0.10
2022-10-18T08:07:24.434Z,0.00
2022-10-18T08:08:26.763Z,0.50
2022-10-18T08:09:28.323Z,0.30
2022-10-18T08:10:29.736Z,0.35
2022-10-18T08:11:31.626Z,1.10
2022-10-18T08:12:33.018Z,0.65
2022-10-18T08:13:34.533Z,0.95
2022-10-18T08:14:35.947Z,0.22
2022-10-18T08:15:37.383Z,0.65
2022-10-18T08:16:38.864Z,0.50
2022-10-18T08:17:40.266Z,0.93
2022-10-18T08:18:42.308Z,0.73
2022-10-18T08:19:52.889Z,1.00
2022-10-18T08:21:08.159Z,0.55
2022-10-18T08:22:09.590Z,0.52
2022-10-18T08:23:11.428Z,0.30
2022-10-18T08:24:12.836Z,0.30
2022-10-18T08:25:14.271Z,0.75
2022-10-18T08:26:18.996Z,0.50
2022-10-18T08:27:20.423Z,1.05
2022-10-18T08:28:22.210Z,0.10
2022-10-18T08:29:26.843Z,0.25
2022-10-18T08:30:30.613Z,0.60
2022-10-18T08:31:32.052Z,0.30
2022-10-18T08:32:33.818Z,0.25
2022-10-18T08:33:35.575Z,0.20
2022-10-18T08:35:43.315Z,0.55
2022-10-18T08:36:44.732Z,0.55
2022-10-18T08:37:46.192Z,0.70
2022-10-18T08:38:47.724Z,0.65
2022-10-18T08:39:49.117Z,0.52
2022-10-18T08:40:50.836Z,0.28
2022-10-18T08:42:19.947Z,0.65
2022-10-18T08:43:47.041Z,0.55
2022-10-18T08:44:50.664Z,0.32
2022-10-18T08:45:54.294Z,0.52
2022-10-18T08:47:02.982Z,1.17
2022-10-18T08:48:06.692Z,1.00
2022-10-18T08:49:16.025Z,0.30
2022-10-18T08:50:25.002Z,0.77
2022-10-18T08:51:42.383Z,0.20
2022-10-18T08:53:37.743Z,0.30
2022-10-18T08:54:55.792Z,0.82
2022-10-18T08:56:03.545Z,0.30
2022-10-18T08:57:13.421Z,0.98
2022-10-18T08:58:20.183Z,2.65
2022-10-18T08:59:24.729Z,0.30
2022-10-18T09:00:31.880Z,0.47
2022-10-18T09:03:03.977Z,0.35
2022-10-18T09:04:11.372Z,0.40
2022-10-18T09:05:31.677Z,0.80
2022-10-18T09:06:44.769Z,0.55
2022-10-18T09:07:53.074Z,0.75
2022-10-18T09:09:25.589Z,1.10
2022-10-18T09:12:42.341Z,0.10
2022-10-18T09:14:18.040Z,0.35
2022-10-18T09:15:33.507Z,0.50
2022-10-18T09:16:56.502Z,0.50
2022-10-18T09:18:23.261Z,0.45
2022-10-18T09:19:52.768Z,1.45
2022-10-18T09:21:03.291Z,0.22
2022-10-18T09:22:13.545Z,1.20
2022-10-18T09:23:48.813Z,0.90
2022-10-18T09:25:05.643Z,0.88
2022-10-18T09:26:12.442Z,0.43
2022-10-18T09:27:28.293Z,0.68
2022-10-18T09:28:42.760Z,0.35
2022-10-18T09:30:15.341Z,1.85
2022-10-18T09:31:48.276Z,0.25
2022-10-18T09:33:25.154Z,0.57
2022-10-18T09:34:33.639Z,0.45
2022-10-18T09:35:47.692Z,0.80
2022-10-18T09:36:51.771Z,2.95
2022-10-18T09:38:00.848Z,0.57
2022-10-18T09:39:08.663Z,0.20
2022-10-18T09:40:24.580Z,0.03
2022-10-18T09:41:30.173Z,0.30
2022-10-18T09:42:37.733Z,0.85
2022-10-18T09:43:52.558Z,0.43
2022-10-18T09:45:35.125Z,1.10
2022-10-18T09:47:53.033Z,0.55
2022-10-18T09:49:05.826Z,0.32
2022-10-18T09:50:52.063Z,1.00
2022-10-18T09:51:54.226Z,0.80
2022-10-18T09:53:20.068Z,0.90
2022-10-18T09:54:49.227Z,0.70
2022-10-18T09:56:09.334Z,0.25
2022-10-18T09:57:17.826Z,0.80
2022-10-18T09:58:22.740Z,1.33
2022-10-18T09:59:43.215Z,0.80
2022-10-18T10:00:50.899Z,0.80
2022-10-18T10:01:52.346Z,0.65
2022-10-18T10:02:54.150Z,0.57
2022-10-18T10:03:56.989Z,1.80
2022-10-18T10:04:58.507Z,0.35
2022-10-18T10:06:16.485Z,0.57
2022-10-18T10:07:21.101Z,0.95
2022-10-18T10:08:33.278Z,0.45
2022-10-18T10:09:44.627Z,0.70
2022-10-18T10:10:47.142Z,0.82
2022-10-18T10:11:50.717Z,0.85
2022-10-18T10:13:16.864Z,0.20
2022-10-18T10:14:24.262Z,1.35
2022-10-18T10:15:28.297Z,0.28
2022-10-18T10:16:32.933Z,0.93
2022-10-18T10:17:34.965Z,0.40
2022-10-18T10:18:38.990Z,0.70
2022-10-18T10:20:02.164Z,0.93
2022-10-18T10:21:07.146Z,0.68
2022-10-18T10:22:14.213Z,1.05
2022-10-18T10:23:24.806Z,0.30
2022-10-18T10:24:49.374Z,1.70
2022-10-18T10:25:53.701Z,0.52
2022-10-18T10:27:00.177Z,0.43
2022-10-18T10:28:12.046Z,0.43
2022-10-18T10:29:52.674Z,0.75
2022-10-18T10:30:54.543Z,0.30
2022-10-18T10:32:04.013Z,0.20
2022-10-18T10:33:06.392Z,1.25
2022-10-18T10:34:13.666Z,0.55
2022-10-18T10:35:35.310Z,0.75
2022-10-18T10:36:51.707Z,0.32
2022-10-18T10:37:54.360Z,0.77
2022-10-18T10:39:13.086Z,0.47
2022-10-18T10:40:19.275Z,0.73
2022-10-18T10:41:23.709Z,0.95
2022-10-18T10:42:25.184Z,0.60
2022-10-18T10:43:43.312Z,0.52
2022-10-18T10:44:55.221Z,0.32
2022-10-18T10:46:04.953Z,0.45
2022-10-18T10:47:06.635Z,0.60
2022-10-18T10:48:15.127Z,1.05
2022-10-18T10:50:54.398Z,0.30
2022-10-18T10:52:09.000Z,0.50
2022-10-18T10:53:29.265Z,1.00
2022-10-18T10:54:33.495Z,0.45
2022-10-18T10:55:35.830Z,0.25
2022-10-18T10:56:59.447Z,1.08
2022-10-18T10:58:00.965Z,0.73
2022-10-18T10:59:15.551Z,1.10
2022-10-18T11:00:36.202Z,0.80
2022-10-18T11:01:37.616Z,1.30
2022-10-18T11:02:39.509Z,1.38
2022-10-18T11:03:46.897Z,0.90
2022-10-18T11:04:53.353Z,0.75
2022-10-18T11:05:55.682Z,0.85
2022-10-18T11:07:09.005Z,1.60
2022-10-18T11:08:13.047Z,0.40
2022-10-18T11:09:29.032Z,0.30
2022-10-18T11:10:44.335Z,0.95
2022-10-18T11:12:03.314Z,1.02
2022-10-18T11:13:42.296Z,0.65
2022-10-18T11:14:49.747Z,1.55
2022-10-18T11:15:59.383Z,1.10
2022-10-18T11:17:22.810Z,1.30
2022-10-18T11:18:30.263Z,0.35
2022-10-18T11:19:42.711Z,0.50
2022-10-18T11:20:58.127Z,1.52
2022-10-18T11:22:04.476Z,0.55
2022-10-18T11:23:08.142Z,0.45
2022-10-18T11:24:15.088Z,0.63
2022-10-18T11:25:17.251Z,0.40
2022-10-18T11:26:48.912Z,0.65
2022-10-18T11:28:05.929Z,0.93
2022-10-18T11:29:28.180Z,1.60
2022-10-18T11:31:12.688Z,0.60
2022-10-18T11:32:31.297Z,1.05
2022-10-18T11:34:08.740Z,0.40
2022-10-18T11:35:50.992Z,1.63
2022-10-18T11:37:27.164Z,1.38
2022-10-18T11:38:37.236Z,0.98
2022-10-18T11:39:54.516Z,0.38
2022-10-18T11:41:23.887Z,1.15
2022-10-18T11:42:55.585Z,0.95
2022-10-18T11:44:03.689Z,0.85
2022-10-18T11:45:43.865Z,0.40
2022-10-18T11:46:48.849Z,1.13
2022-10-18T11:47:55.872Z,1.45
2022-10-18T11:49:22.564Z,1.73
2022-10-18T11:50:34.831Z,0.50
2022-10-18T11:52:09.134Z,2.05
2022-10-18T11:53:22.940Z,1.25
2022-10-18T11:54:58.467Z,1.00
2022-10-18T11:56:17.884Z,1.10
2022-10-18T11:57:50.046Z,0.50
2022-10-18T11:59:27.600Z,0.88
2022-10-18T12:00:43.094Z,0.45
2022-10-18T12:02:03.659Z,1.65
2022-10-18T12:03:14.245Z,0.98
2022-10-18T12:04:24.942Z,1.92
2022-10-18T12:05:27.269Z,0.88
2022-10-18T12:06:34.586Z,1.05
2022-10-18T12:07:51.676Z,0.73
2022-10-18T12:08:58.248Z,0.32
2022-10-18T12:10:01.262Z,0.95
2022-10-18T12:11:11.416Z,1.25
2022-10-18T12:12:19.330Z,3.47
2022-10-18T12:13:48.181Z,1.13
2022-10-18T12:14:54.634Z,0.30
2022-10-18T12:15:56.549Z,0.50
2022-10-18T12:17:35.936Z,0.70
2022-10-18T12:18:26.263Z,1.02
2022-10-18T12:19:29.900Z,0.50
2022-10-18T12:20:35.115Z,0.95
2022-10-18T12:21:37.034Z,1.15
2022-10-18T12:22:44.694Z,1.35
2022-10-18T12:23:54.445Z,0.93
2022-10-18T12:24:55.863Z,0.90
2022-10-18T12:26:06.396Z,0.40
2022-10-18T12:27:13.079Z,0.55
2022-10-18T12:28:24.692Z,1.05
2022-10-18T12:29:34.727Z,0.82
2022-10-18T12:31:01.050Z,0.10
2022-10-18T12:32:08.831Z,1.92
2022-10-18T12:33:28.578Z,0.85
2022-10-18T12:34:40.775Z,2.38
2022-10-18T12:36:16.495Z,0.65
2022-10-18T12:37:34.679Z,0.30
2022-10-18T12:38:40.657Z,0.60
2022-10-18T12:41:21.935Z,0.77
2022-10-18T12:42:27.074Z,1.40
2022-10-18T12:43:31.229Z,1.52
2022-10-18T12:44:34.798Z,1.15
2022-10-18T12:45:48.993Z,0.50
2022-10-18T12:46:57.808Z,1.52
2022-10-18T12:48:06.379Z,1.10
2022-10-18T12:49:12.738Z,1.67
2022-10-18T12:50:39.065Z,2.42
2022-10-18T12:51:52.366Z,0.38
2022-10-18T12:53:11.964Z,0.73
2022-10-18T12:54:18.568Z,1.60
2022-10-18T12:55:19.924Z,1.10
2022-10-18T12:57:52.048Z,0.60
2022-10-18T12:59:16.289Z,0.93
2022-10-18T13:00:46.805Z,0.82
2022-10-18T13:01:51.368Z,0.77
2022-10-18T13:03:15.547Z,0.93
2022-10-18T13:04:28.969Z,0.30
2022-10-18T13:05:53.290Z,1.13
2022-10-18T13:06:57.753Z,1.00
2022-10-18T13:08:27.882Z,1.73
2022-10-18T13:09:38.722Z,2.15
2022-10-18T13:10:41.181Z,0.70
2022-10-18T13:11:42.743Z,0.80
2022-10-18T13:13:24.458Z,0.63
2022-10-18T13:14:44.075Z,0.70
2022-10-18T13:16:21.260Z,1.08
2022-10-18T13:17:41.502Z,0.30
2022-10-18T13:19:04.612Z,0.85
2022-10-18T13:20:27.322Z,1.80
2022-10-18T13:21:52.583Z,1.17
2022-10-18T13:22:53.957Z,1.13
2022-10-18T13:25:29.725Z,1.58
2022-10-18T13:26:40.490Z,1.17
2022-10-18T13:28:05.168Z,1.27
2022-10-18T13:29:25.116Z,0.77
2022-10-18T13:30:52.758Z,0.75
2022-10-18T13:33:41.411Z,0.30
2022-10-18T13:34:42.974Z,0.20
2022-10-18T13:35:56.119Z,1.25
2022-10-18T13:37:01.218Z,0.80
2022-10-18T13:38:02.961Z,0.28
2022-10-18T13:39:05.562Z,1.00
2022-10-18T13:40:24.353Z,0.98
2022-10-18T13:41:42.573Z,0.50
2022-10-18T13:42:50.076Z,1.13
2022-10-18T13:43:54.039Z,0.98
2022-10-18T13:45:33.627Z,0.50
2022-10-18T13:46:35.035Z,0.75
2022-10-18T13:47:39.324Z,0.20
2022-10-18T13:48:40.676Z,0.32
2022-10-18T13:51:30.220Z,0.80
2022-10-18T13:53:01.316Z,1.92
2022-10-18T13:54:30.021Z,0.73
2022-10-18T13:56:16.099Z,0.77
2022-10-18T13:57:22.979Z,0.60
2022-10-18T13:58:53.780Z,0.82
2022-10-18T14:00:48.144Z,1.00
2022-10-18T14:02:12.629Z,1.08
2022-10-18T14:03:55.719Z,0.38
2022-10-18T14:05:25.614Z,0.80
2022-10-18T14:06:41.231Z,0.55
2022-10-18T14:07:44.368Z,0.40
2022-10-18T14:08:53.927Z,1.17
2022-10-18T14:09:59.516Z,0.20
2022-10-18T14:11:18.913Z,0.93
2022-10-18T14:12:26.132Z,2.90
2022-10-18T14:13:38.651Z,0.57
2022-10-18T14:14:47.683Z,0.93
2022-10-18T14:15:58.434Z,0.05
2022-10-18T14:17:36.088Z,0.22
2022-10-18T14:18:42.442Z,0.52
2022-10-18T14:19:54.808Z,0.63
2022-10-18T14:21:13.382Z,0.15
2022-10-18T14:22:28.666Z,0.57
2022-10-18T14:23:39.963Z,0.57
2022-10-18T14:24:46.574Z,0.80
2022-10-18T14:25:48.274Z,0.20
2022-10-18T14:27:16.195Z,0.60
2022-10-18T14:28:31.400Z,2.17
2022-10-18T14:29:43.838Z,0.82
2022-10-18T14:31:03.107Z,0.70
2022-10-18T14:32:09.595Z,0.75
2022-10-18T14:33:43.981Z,0.73
2022-10-18T14:34:45.483Z,0.52
2022-10-18T14:35:59.028Z,0.25
2022-10-18T14:37:00.632Z,0.10
2022-10-18T14:38:02.584Z,0.60
2022-10-18T14:39:06.109Z,0.63
2022-10-18T14:40:27.763Z,0.90
2022-10-18T14:41:34.608Z,0.45
2022-10-18T14:42:36.020Z,0.38
2022-10-18T14:43:37.460Z,0.20
2022-10-18T14:44:38.879Z,0.75
2022-10-18T14:45:41.761Z,0.15
2022-10-18T14:46:47.462Z,1.70
2022-10-18T14:47:48.923Z,0.82
2022-10-18T14:48:57.849Z,1.25
2022-10-18T14:49:59.246Z,0.90
2022-10-18T14:51:11.033Z,0.38
2022-10-18T14:52:15.810Z,0.30
2022-10-18T14:53:19.679Z,0.35
2022-10-18T14:54:26.237Z,1.48
2022-10-18T14:55:31.057Z,0.80
2022-10-18T14:56:37.965Z,1.08
2022-10-18T14:57:39.688Z,0.40
2022-10-18T14:58:41.766Z,0.55
2022-10-18T14:59:49.499Z,0.20
2022-10-18T15:00:50.974Z,0.22
2022-10-18T15:01:54.711Z,0.10
2022-10-18T15:02:56.319Z,0.57
2022-10-18T15:04:00.903Z,0.30
2022-10-18T15:05:28.308Z,0.43
2022-10-18T15:06:29.711Z,0.00
2022-10-18T15:07:32.268Z,0.80
2022-10-18T15:08:39.989Z,1.30
2022-10-18T15:09:42.490Z,0.95
2022-10-18T15:10:44.175Z,0.22
2022-10-18T15:11:46.800Z,0.20
2022-10-18T15:13:08.625Z,0.20
2022-10-18T15:14:16.283Z,1.05
2022-10-18T15:15:25.440Z,0.00
2022-10-18T15:16:30.582Z,0.25
2022-10-18T15:17:32.979Z,0.00
2022-10-18T15:18:34.536Z,0.22
2022-10-18T15:19:37.810Z,0.57
2022-10-18T15:20:39.576Z,0.22
2022-10-18T15:23:27.017Z,0.00
2022-10-18T15:24:37.421Z,0.00
2022-10-18T15:25:38.854Z,0.00
2022-10-18T15:26:44.839Z,0.00
2022-10-18T15:27:55.586Z,0.08
2022-10-18T15:29:00.508Z,0.70
2022-10-18T15:30:09.402Z,0.00
2022-10-18T15:31:29.837Z,0.32
2022-10-18T15:32:31.861Z,0.15
2022-10-18T15:33:33.750Z,0.00
2022-10-18T15:34:35.371Z,0.15
2022-10-18T15:35:38.783Z,0.00
2022-10-18T15:36:40.455Z,0.00
2022-10-18T15:37:44.666Z,0.00
2022-10-18T15:38:49.154Z,0.10
2022-10-18T15:40:18.276Z,0.10
2022-10-18T15:41:49.891Z,0.20
2022-10-18T15:42:53.571Z,0.00
2022-10-18T15:44:10.117Z,0.32
2022-10-18T15:45:25.093Z,0.00
2022-10-18T15:46:32.070Z,0.35
2022-10-18T15:47:33.751Z,0.90
2022-10-18T15:48:40.666Z,0.00
2022-10-18T15:49:44.972Z,0.00
2022-10-18T15:50:52.447Z,0.00
2022-10-18T15:52:09.015Z,0.00
2022-10-18T15:53:22.392Z,0.00
2022-10-18T15:54:30.543Z,0.00
2022-10-18T15:55:31.901Z,1.02
2022-10-18T15:57:36.067Z,0.20
2022-10-18T15:58:47.886Z,0.10
2022-10-18T16:00:05.367Z,0.00
2022-10-18T16:01:16.963Z,1.27
2022-10-18T16:02:19.419Z,0.30
2022-10-18T16:03:21.544Z,0.30
2022-10-18T16:04:29.125Z,0.47
2022-10-18T16:05:30.570Z,0.17
2022-10-18T16:06:31.977Z,0.30
2022-10-18T16:07:33.857Z,1.25
2022-10-18T16:08:52.793Z,1.65
2022-10-18T16:09:54.226Z,10.40
2022-10-18T16:10:56.617Z,22.77
2022-10-18T16:11:58.052Z,24.38
2022-10-18T16:12:59.555Z,16.98
2022-10-18T16:14:00.977Z,5.47
2022-10-18T16:15:02.453Z,3.22
2022-10-18T16:16:04.029Z,1.33
2022-10-18T16:17:06.621Z,2.55
2022-10-18T16:18:13.444Z,1.13
2022-10-18T16:19:16.747Z,0.25
2022-10-18T16:20:23.557Z,2.25
2022-10-18T16:21:31.194Z,6.93
2022-10-18T16:22:34.802Z,2.15
2022-10-18T16:23:38.467Z,1.88